Orin, Wyoming
Current Conditions -  °F | °C
As of 4:53 AM on Sunday 21 Dec 2014 (Local Time) from KDGW Reporting Station
Few Clouds Few Clouds  
Wind Chill: 31°   Ceiling: Unl
Heat Index: 37°   Visibility: 10mi
Dew Point: 25°   Wind: 8mph
Humidity: 62%   Direction: 260°W
Pressure: 29.63"   Gusts: NA
Location:  43.1775°N, 105.367°W
Report Text: KDGW 211153Z AUTO 26007KT 10SM FEW120 03/M04 A2963 RMK AO2 SLP042 T00281039 10039 21017 58034
Loading
Personal Weather Stations






























Interactive Weather Map New forecast layout! Learn more

10-Day Weather Forecast

Advertisements
Track Severe Weather on mobile